sensor_id;sensor_type;location;lat;lon;timestamp;temperature;humidity
3954;DHT22;1991;48.682;9.030;2024-03-02T00:00:10;5.20;99.90
3954;DHT22;1991;48.682;9.030;2024-03-02T00:02:45;5.20;99.90
3954;DHT22;1991;48.682;9.030;2024-03-02T00:05:12;5.30;99.90
3954;DHT22;1991;48.682;9.030;2024-03-02T00:07:41;5.30;99.90
3954;DHT22;1991;48.682;9.030;2024-03-02T00:10:16;5.30;99.90
3954;DHT22;1991;48.682;9.030;2024-03-02T00:12:47;5.30;99.90
3954;DHT22;1991;48.682;9.030;2024-03-02T00:15:41;5.40;99.90
3954;DHT22;1991;48.682;9.030;2024-03-02T00:18:36;5.30;99.90
3954;DHT22;1991;48.682;9.030;2024-03-02T00:21:03;5.40;99.90
3954;DHT22;1991;48.682;9.030;2024-03-02T00:23:31;5.40;99.90
3954;DHT22;1991;48.682;9.030;2024-03-02T00:25:58;5.40;99.90
3954;DHT22;1991;48.682;9.030;2024-03-02T00:28:35;5.40;99.90
3954;DHT22;1991;48.682;9.030;2024-03-02T00:31:04;5.40;99.90
3954;DHT22;1991;48.682;9.030;2024-03-02T00:33:38;5.40;99.90
3954;DHT22;1991;48.682;9.030;2024-03-02T00:36:06;5.40;99.90
3954;DHT22;1991;48.682;9.030;2024-03-02T00:38:32;5.30;99.90
3954;DHT22;1991;48.682;9.030;2024-03-02T00:41:00;5.30;99.90
3954;DHT22;1991;48.682;9.030;2024-03-02T00:46:28;5.30;99.90
3954;DHT22;1991;48.682;9.030;2024-03-02T00:49:00;5.30;99.90
3954;DHT22;1991;48.682;9.030;2024-03-02T00:51:27;5.40;99.90
3954;DHT22;1991;48.682;9.030;2024-03-02T00:53:54;5.40;99.90
3954;DHT22;1991;48.682;9.030;2024-03-02T00:56:22;5.40;99.90
3954;DHT22;1991;48.682;9.030;2024-03-02T00:58:48;5.50;99.90
3954;DHT22;1991;48.682;9.030;2024-03-02T01:01:14;5.50;99.90
3954;DHT22;1991;48.682;9.030;2024-03-02T01:03:39;5.50;99.90
3954;DHT22;1991;48.682;9.030;2024-03-02T01:06:07;5.50;99.90
3954;DHT22;1991;48.682;9.030;2024-03-02T01:08:33;5.50;99.90
3954;DHT22;1991;48.682;9.030;2024-03-02T01:10:59;5.50;99.90
3954;DHT22;1991;48.682;9.030;2024-03-02T01:13:24;5.40;99.90
3954;DHT22;1991;48.682;9.030;2024-03-02T01:15:50;5.40;99.90
3954;DHT22;1991;48.682;9.030;2024-03-02T01:18:16;5.40;99.90
3954;DHT22;1991;48.682;9.030;2024-03-02T01:20:41;5.50;99.90
3954;DHT22;1991;48.682;9.030;2024-03-02T01:23:07;5.40;99.90
3954;DHT22;1991;48.682;9.030;2024-03-02T01:25:34;5.40;99.90
3954;DHT22;1991;48.682;9.030;2024-03-02T01:28:01;5.40;99.90
3954;DHT22;1991;48.682;9.030;2024-03-02T01:30:26;5.40;99.90
3954;DHT22;1991;48.682;9.030;2024-03-02T01:32:52;5.40;99.90
3954;DHT22;1991;48.682;9.030;2024-03-02T01:35:18;5.40;99.90
3954;DHT22;1991;48.682;9.030;2024-03-02T01:37:43;5.30;99.90
3954;DHT22;1991;48.682;9.030;2024-03-02T01:40:10;5.30;99.90
3954;DHT22;1991;48.682;9.030;2024-03-02T01:42:39;5.20;99.90
3954;DHT22;1991;48.682;9.030;2024-03-02T01:45:06;5.20;99.90
3954;DHT22;1991;48.682;9.030;2024-03-02T01:47:32;5.10;99.90
3954;DHT22;1991;48.682;9.030;2024-03-02T01:49:58;5.10;99.90
3954;DHT22;1991;48.682;9.030;2024-03-02T01:52:24;5.10;99.90
3954;DHT22;1991;48.682;9.030;2024-03-02T01:54:50;5.10;99.90
3954;DHT22;1991;48.682;9.030;2024-03-02T01:57:15;5.00;99.90
3954;DHT22;1991;48.682;9.030;2024-03-02T01:59:41;5.00;99.90
3954;DHT22;1991;48.682;9.030;2024-03-02T02:02:07;4.90;99.90
3954;DHT22;1991;48.682;9.030;2024-03-02T02:04:33;4.90;99.90
3954;DHT22;1991;48.682;9.030;2024-03-02T02:06:59;4.90;99.90
3954;DHT22;1991;48.682;9.030;2024-03-02T02:12:43;4.80;99.90
3954;DHT22;1991;48.682;9.030;2024-03-02T02:15:29;4.90;99.90
3954;DHT22;1991;48.682;9.030;2024-03-02T02:17:56;4.90;99.90
3954;DHT22;1991;48.682;9.030;2024-03-02T02:20:23;4.80;99.90
3954;DHT22;1991;48.682;9.030;2024-03-02T02:22:58;4.70;99.90
3954;DHT22;1991;48.682;9.030;2024-03-02T02:25:24;4.70;99.90
3954;DHT22;1991;48.682;9.030;2024-03-02T02:27:50;4.70;99.90
3954;DHT22;1991;48.682;9.030;2024-03-02T02:30:24;4.70;99.90
3954;DHT22;1991;48.682;9.030;2024-03-02T02:32:49;4.60;99.90
3954;DHT22;1991;48.682;9.030;2024-03-02T02:35:15;4.60;99.90
3954;DHT22;1991;48.682;9.030;2024-03-02T02:37:41;4.60;99.90
3954;DHT22;1991;48.682;9.030;2024-03-02T02:40:07;4.60;99.90
3954;DHT22;1991;48.682;9.030;2024-03-02T02:42:33;4.60;99.90
3954;DHT22;1991;48.682;9.030;2024-03-02T02:44:58;4.60;99.90
3954;DHT22;1991;48.682;9.030;2024-03-02T02:47:24;4.60;99.90
3954;DHT22;1991;48.682;9.030;2024-03-02T02:49:50;4.50;99.90
3954;DHT22;1991;48.682;9.030;2024-03-02T02:52:16;4.40;99.90
3954;DHT22;1991;48.682;9.030;2024-03-02T02:54:41;4.30;99.90
3954;DHT22;1991;48.682;9.030;2024-03-02T02:57:07;4.40;99.90
3954;DHT22;1991;48.682;9.030;2024-03-02T02:59:33;4.40;99.90
3954;DHT22;1991;48.682;9.030;2024-03-02T03:01:58;4.40;99.90
3954;DHT22;1991;48.682;9.030;2024-03-02T03:04:24;4.30;99.90
3954;DHT22;1991;48.682;9.030;2024-03-02T03:06:49;4.10;99.90
3954;DHT22;1991;48.682;9.030;2024-03-02T03:09:15;4.10;99.90
3954;DHT22;1991;48.682;9.030;2024-03-02T03:11:41;4.00;99.90
3954;DHT22;1991;48.682;9.030;2024-03-02T03:14:06;4.00;99.90
3954;DHT22;1991;48.682;9.030;2024-03-02T03:16:32;3.90;99.90
3954;DHT22;1991;48.682;9.030;2024-03-02T03:18:57;3.80;99.90
3954;DHT22;1991;48.682;9.030;2024-03-02T03:21:23;3.70;99.90
3954;DHT22;1991;48.682;9.030;2024-03-02T03:23:48;3.70;99.90
3954;DHT22;1991;48.682;9.030;2024-03-02T03:26:14;3.60;99.90
3954;DHT22;1991;48.682;9.030;2024-03-02T03:28:39;3.60;99.90
3954;DHT22;1991;48.682;9.030;2024-03-02T03:31:05;3.60;99.90
3954;DHT22;1991;48.682;9.030;2024-03-02T03:33:31;3.50;99.90
3954;DHT22;1991;48.682;9.030;2024-03-02T03:35:57;3.50;99.90
3954;DHT22;1991;48.682;9.030;2024-03-02T03:38:22;3.50;99.90
3954;DHT22;1991;48.682;9.030;2024-03-02T03:40:48;3.60;99.90
3954;DHT22;1991;48.682;9.030;2024-03-02T03:43:13;3.60;99.90
3954;DHT22;1991;48.682;9.030;2024-03-02T03:45:39;3.60;99.90
3954;DHT22;1991;48.682;9.030;2024-03-02T03:48:04;3.60;99.90
3954;DHT22;1991;48.682;9.030;2024-03-02T03:50:30;3.60;99.90
3954;DHT22;1991;48.682;9.030;2024-03-02T03:52:56;3.60;99.90
3954;DHT22;1991;48.682;9.030;2024-03-02T03:55:21;3.50;99.90
3954;DHT22;1991;48.682;9.030;2024-03-02T03:57:47;3.50;99.90
3954;DHT22;1991;48.682;9.030;2024-03-02T04:00:13;3.40;99.90
3954;DHT22;1991;48.682;9.030;2024-03-02T04:02:39;3.40;99.90
3954;DHT22;1991;48.682;9.030;2024-03-02T04:05:05;3.40;99.90
3954;DHT22;1991;48.682;9.030;2024-03-02T04:07:37;3.40;99.90
3954;DHT22;1991;48.682;9.030;2024-03-02T04:10:07;3.40;99.90
3954;DHT22;1991;48.682;9.030;2024-03-02T04:12:34;3.50;99.90
3954;DHT22;1991;48.682;9.030;2024-03-02T04:15:01;3.60;99.90
3954;DHT22;1991;48.682;9.030;2024-03-02T04:17:27;3.60;99.90
3954;DHT22;1991;48.682;9.030;2024-03-02T04:19:53;3.50;99.90
3954;DHT22;1991;48.682;9.030;2024-03-02T04:22:18;3.60;99.90
3954;DHT22;1991;48.682;9.030;2024-03-02T04:24:44;3.70;99.90
3954;DHT22;1991;48.682;9.030;2024-03-02T04:27:09;3.70;99.90
3954;DHT22;1991;48.682;9.030;2024-03-02T04:29:35;3.70;99.90
3954;DHT22;1991;48.682;9.030;2024-03-02T04:32:00;3.70;99.90
3954;DHT22;1991;48.682;9.030;2024-03-02T04:34:26;3.70;99.90
3954;DHT22;1991;48.682;9.030;2024-03-02T04:36:51;3.60;99.90
3954;DHT22;1991;48.682;9.030;2024-03-02T04:39:17;3.60;99.90
3954;DHT22;1991;48.682;9.030;2024-03-02T04:41:42;3.50;99.90
3954;DHT22;1991;48.682;9.030;2024-03-02T04:44:08;3.50;99.90
3954;DHT22;1991;48.682;9.030;2024-03-02T04:46:34;3.50;99.90
3954;DHT22;1991;48.682;9.030;2024-03-02T04:48:59;3.50;99.90
3954;DHT22;1991;48.682;9.030;2024-03-02T04:51:25;3.40;99.90
3954;DHT22;1991;48.682;9.030;2024-03-02T04:53:50;3.30;99.90
3954;DHT22;1991;48.682;9.030;2024-03-02T04:56:16;3.30;99.90
3954;DHT22;1991;48.682;9.030;2024-03-02T04:58:56;3.20;99.90
3954;DHT22;1991;48.682;9.030;2024-03-02T05:01:22;3.20;99.90
3954;DHT22;1991;48.682;9.030;2024-03-02T05:03:47;3.20;99.90
3954;DHT22;1991;48.682;9.030;2024-03-02T05:06:13;3.10;99.90
3954;DHT22;1991;48.682;9.030;2024-03-02T05:08:38;3.10;99.90
3954;DHT22;1991;48.682;9.030;2024-03-02T05:11:04;3.10;99.90
3954;DHT22;1991;48.682;9.030;2024-03-02T05:13:48;3.20;99.90
3954;DHT22;1991;48.682;9.030;2024-03-02T05:16:14;3.10;99.90
3954;DHT22;1991;48.682;9.030;2024-03-02T05:18:39;3.20;99.90
3954;DHT22;1991;48.682;9.030;2024-03-02T05:21:05;3.20;99.90
3954;DHT22;1991;48.682;9.030;2024-03-02T05:23:30;3.10;99.90
3954;DHT22;1991;48.682;9.030;2024-03-02T05:25:56;3.10;99.90
3954;DHT22;1991;48.682;9.030;2024-03-02T05:28:22;3.10;99.90
3954;DHT22;1991;48.682;9.030;2024-03-02T05:30:47;3.10;99.90
3954;DHT22;1991;48.682;9.030;2024-03-02T05:33:13;3.10;99.90
3954;DHT22;1991;48.682;9.030;2024-03-02T05:35:38;3.10;99.90
3954;DHT22;1991;48.682;9.030;2024-03-02T05:38:04;3.10;99.90
3954;DHT22;1991;48.682;9.030;2024-03-02T05:40:29;3.10;99.90
3954;DHT22;1991;48.682;9.030;2024-03-02T05:42:55;3.10;99.90
3954;DHT22;1991;48.682;9.030;2024-03-02T05:45:20;3.10;99.90
3954;DHT22;1991;48.682;9.030;2024-03-02T05:47:46;3.00;99.90
3954;DHT22;1991;48.682;9.030;2024-03-02T05:50:12;3.10;99.90
3954;DHT22;1991;48.682;9.030;2024-03-02T05:52:37;3.10;99.90
3954;DHT22;1991;48.682;9.030;2024-03-02T05:55:03;3.10;99.90
3954;DHT22;1991;48.682;9.030;2024-03-02T05:57:29;3.20;99.90
3954;DHT22;1991;48.682;9.030;2024-03-02T06:00:13;3.20;99.90
3954;DHT22;1991;48.682;9.030;2024-03-02T06:02:41;3.20;99.90
3954;DHT22;1991;48.682;9.030;2024-03-02T06:05:07;3.20;99.90
3954;DHT22;1991;48.682;9.030;2024-03-02T06:07:33;3.20;99.90
3954;DHT22;1991;48.682;9.030;2024-03-02T06:09:58;3.20;99.90
3954;DHT22;1991;48.682;9.030;2024-03-02T06:12:24;3.30;99.90
3954;DHT22;1991;48.682;9.030;2024-03-02T06:14:49;3.30;99.90
3954;DHT22;1991;48.682;9.030;2024-03-02T06:17:15;3.40;99.90
3954;DHT22;1991;48.682;9.030;2024-03-02T06:19:40;3.40;99.90
3954;DHT22;1991;48.682;9.030;2024-03-02T06:22:06;3.50;99.90
3954;DHT22;1991;48.682;9.030;2024-03-02T06:24:36;3.60;99.90
3954;DHT22;1991;48.682;9.030;2024-03-02T06:27:02;3.60;99.90
3954;DHT22;1991;48.682;9.030;2024-03-02T06:29:27;3.70;99.90
3954;DHT22;1991;48.682;9.030;2024-03-02T06:31:53;3.70;99.90
3954;DHT22;1991;48.682;9.030;2024-03-02T06:34:18;3.90;99.90
3954;DHT22;1991;48.682;9.030;2024-03-02T06:36:44;3.90;99.90
3954;DHT22;1991;48.682;9.030;2024-03-02T06:39:09;4.00;99.90
3954;DHT22;1991;48.682;9.030;2024-03-02T06:41:35;4.10;99.90
3954;DHT22;1991;48.682;9.030;2024-03-02T06:44:01;4.20;99.90
3954;DHT22;1991;48.682;9.030;2024-03-02T06:46:26;4.30;99.90
3954;DHT22;1991;48.682;9.030;2024-03-02T06:48:52;4.30;99.90
3954;DHT22;1991;48.682;9.030;2024-03-02T06:51:17;4.40;99.90
3954;DHT22;1991;48.682;9.030;2024-03-02T06:53:43;4.50;99.90
3954;DHT22;1991;48.682;9.030;2024-03-02T06:56:08;4.60;99.90
3954;DHT22;1991;48.682;9.030;2024-03-02T06:58:34;4.70;99.90
3954;DHT22;1991;48.682;9.030;2024-03-02T07:01:00;4.70;99.90
3954;DHT22;1991;48.682;9.030;2024-03-02T07:03:26;4.80;99.90
3954;DHT22;1991;48.682;9.030;2024-03-02T07:05:51;4.90;99.90
3954;DHT22;1991;48.682;9.030;2024-03-02T07:08:17;5.10;99.90
3954;DHT22;1991;48.682;9.030;2024-03-02T07:10:42;5.20;99.90
3954;DHT22;1991;48.682;9.030;2024-03-02T07:13:08;5.30;99.90
3954;DHT22;1991;48.682;9.030;2024-03-02T07:15:33;5.50;99.90
3954;DHT22;1991;48.682;9.030;2024-03-02T07:18:02;5.70;99.90
3954;DHT22;1991;48.682;9.030;2024-03-02T07:20:28;5.80;99.90
3954;DHT22;1991;48.682;9.030;2024-03-02T07:22:53;5.90;99.90
3954;DHT22;1991;48.682;9.030;2024-03-02T07:25:19;6.00;99.90
3954;DHT22;1991;48.682;9.030;2024-03-02T07:27:45;5.90;99.90
3954;DHT22;1991;48.682;9.030;2024-03-02T07:30:14;6.00;99.90
3954;DHT22;1991;48.682;9.030;2024-03-02T07:32:39;6.00;99.90
3954;DHT22;1991;48.682;9.030;2024-03-02T07:35:07;6.00;99.90
3954;DHT22;1991;48.682;9.030;2024-03-02T07:37:33;6.10;99.90
3954;DHT22;1991;48.682;9.030;2024-03-02T07:39:58;6.10;99.90
3954;DHT22;1991;48.682;9.030;2024-03-02T07:42:24;6.20;99.90
3954;DHT22;1991;48.682;9.030;2024-03-02T07:44:49;6.20;99.90
3954;DHT22;1991;48.682;9.030;2024-03-02T07:47:15;6.20;99.90
3954;DHT22;1991;48.682;9.030;2024-03-02T07:49:41;6.30;99.90
3954;DHT22;1991;48.682;9.030;2024-03-02T07:52:06;6.30;99.90
3954;DHT22;1991;48.682;9.030;2024-03-02T07:54:33;6.40;99.90
3954;DHT22;1991;48.682;9.030;2024-03-02T07:56:58;6.50;99.90
3954;DHT22;1991;48.682;9.030;2024-03-02T07:59:24;6.70;99.90
3954;DHT22;1991;48.682;9.030;2024-03-02T08:01:49;6.80;99.90
3954;DHT22;1991;48.682;9.030;2024-03-02T08:04:18;6.90;99.90
3954;DHT22;1991;48.682;9.030;2024-03-02T08:06:45;7.10;99.90
3954;DHT22;1991;48.682;9.030;2024-03-02T08:09:10;7.30;99.90
3954;DHT22;1991;48.682;9.030;2024-03-02T08:11:36;7.60;99.90
3954;DHT22;1991;48.682;9.030;2024-03-02T08:14:03;7.70;99.90
3954;DHT22;1991;48.682;9.030;2024-03-02T08:16:28;7.80;99.90
3954;DHT22;1991;48.682;9.030;2024-03-02T08:18:54;8.00;99.90
3954;DHT22;1991;48.682;9.030;2024-03-02T08:21:22;8.30;99.90
3954;DHT22;1991;48.682;9.030;2024-03-02T08:23:48;8.40;99.90
3954;DHT22;1991;48.682;9.030;2024-03-02T08:26:13;8.50;99.90
3954;DHT22;1991;48.682;9.030;2024-03-02T08:28:39;8.80;99.90
3954;DHT22;1991;48.682;9.030;2024-03-02T08:31:06;9.10;99.90
3954;DHT22;1991;48.682;9.030;2024-03-02T08:33:32;9.40;99.90
3954;DHT22;1991;48.682;9.030;2024-03-02T08:35:57;9.70;99.90
3954;DHT22;1991;48.682;9.030;2024-03-02T08:38:23;10.20;99.90
3954;DHT22;1991;48.682;9.030;2024-03-02T08:40:49;10.80;99.90
3954;DHT22;1991;48.682;9.030;2024-03-02T08:43:15;12.30;99.90
3954;DHT22;1991;48.682;9.030;2024-03-02T08:45:41;15.30;95.40
3954;DHT22;1991;48.682;9.030;2024-03-02T08:48:09;18.10;82.00
3954;DHT22;1991;48.682;9.030;2024-03-02T08:50:36;20.40;70.20
3954;DHT22;1991;48.682;9.030;2024-03-02T08:53:03;22.20;63.20
3954;DHT22;1991;48.682;9.030;2024-03-02T08:55:28;23.60;56.50
3954;DHT22;1991;48.682;9.030;2024-03-02T08:57:55;24.10;53.60
3954;DHT22;1991;48.682;9.030;2024-03-02T09:00:21;23.70;51.50
3954;DHT22;1991;48.682;9.030;2024-03-02T09:02:46;24.40;50.50
3954;DHT22;1991;48.682;9.030;2024-03-02T09:05:12;25.90;48.60
3954;DHT22;1991;48.682;9.030;2024-03-02T09:07:38;26.60;47.40
3954;DHT22;1991;48.682;9.030;2024-03-02T09:10:05;27.30;46.00
3954;DHT22;1991;48.682;9.030;2024-03-02T09:12:31;28.00;45.10
3954;DHT22;1991;48.682;9.030;2024-03-02T09:14:57;27.80;44.20
3954;DHT22;1991;48.682;9.030;2024-03-02T09:17:23;29.00;43.60
3954;DHT22;1991;48.682;9.030;2024-03-02T09:19:48;30.80;42.10
3954;DHT22;1991;48.682;9.030;2024-03-02T09:22:17;31.00;40.70
3954;DHT22;1991;48.682;9.030;2024-03-02T09:24:43;32.60;39.80
3954;DHT22;1991;48.682;9.030;2024-03-02T09:27:08;34.00;37.90
3954;DHT22;1991;48.682;9.030;2024-03-02T09:29:34;35.20;36.70
3954;DHT22;1991;48.682;9.030;2024-03-02T09:31:59;35.10;35.40
3954;DHT22;1991;48.682;9.030;2024-03-02T09:34:25;35.50;35.20
3954;DHT22;1991;48.682;9.030;2024-03-02T09:36:51;34.90;34.90
3954;DHT22;1991;48.682;9.030;2024-03-02T09:39:17;35.30;34.20
3954;DHT22;1991;48.682;9.030;2024-03-02T09:41:43;34.60;34.70
3954;DHT22;1991;48.682;9.030;2024-03-02T09:44:09;35.60;33.90
3954;DHT22;1991;48.682;9.030;2024-03-02T09:46:35;36.10;33.80
3954;DHT22;1991;48.682;9.030;2024-03-02T09:49:02;35.00;33.50
3954;DHT22;1991;48.682;9.030;2024-03-02T09:51:27;34.20;33.50
3954;DHT22;1991;48.682;9.030;2024-03-02T09:53:54;34.70;34.10
3954;DHT22;1991;48.682;9.030;2024-03-02T09:56:21;34.70;34.10
3954;DHT22;1991;48.682;9.030;2024-03-02T09:58:47;35.60;33.70
3954;DHT22;1991;48.682;9.030;2024-03-02T10:01:13;35.00;33.60
3954;DHT22;1991;48.682;9.030;2024-03-02T10:03:39;36.40;33.00
3954;DHT22;1991;48.682;9.030;2024-03-02T10:08:47;37.50;32.50
3954;DHT22;1991;48.682;9.030;2024-03-02T10:11:33;38.30;31.80
3954;DHT22;1991;48.682;9.030;2024-03-02T10:14:11;38.40;31.50
3954;DHT22;1991;48.682;9.030;2024-03-02T10:16:39;38.60;31.00
3954;DHT22;1991;48.682;9.030;2024-03-02T10:19:20;38.30;30.70
3954;DHT22;1991;48.682;9.030;2024-03-02T10:21:50;38.30;31.20
3954;DHT22;1991;48.682;9.030;2024-03-02T10:24:20;39.00;30.50
3954;DHT22;1991;48.682;9.030;2024-03-02T10:26:46;34.80;31.10
3954;DHT22;1991;48.682;9.030;2024-03-02T10:29:12;33.60;32.60
3954;DHT22;1991;48.682;9.030;2024-03-02T10:31:39;33.60;32.90
3954;DHT22;1991;48.682;9.030;2024-03-02T10:34:05;35.50;32.00
3954;DHT22;1991;48.682;9.030;2024-03-02T10:36:35;36.30;31.80
3954;DHT22;1991;48.682;9.030;2024-03-02T10:39:03;35.60;32.30
3954;DHT22;1991;48.682;9.030;2024-03-02T10:41:32;36.20;31.80
3954;DHT22;1991;48.682;9.030;2024-03-02T10:43:58;38.10;31.20
3954;DHT22;1991;48.682;9.030;2024-03-02T10:46:31;39.70;30.00
3954;DHT22;1991;48.682;9.030;2024-03-02T10:48:58;40.30;29.60
3954;DHT22;1991;48.682;9.030;2024-03-02T10:51:28;41.10;29.50
3954;DHT22;1991;48.682;9.030;2024-03-02T10:54:00;41.60;29.10
3954;DHT22;1991;48.682;9.030;2024-03-02T10:56:43;41.40;28.60
3954;DHT22;1991;48.682;9.030;2024-03-02T11:01:59;41.90;28.70
3954;DHT22;1991;48.682;9.030;2024-03-02T11:04:26;41.70;29.10
3954;DHT22;1991;48.682;9.030;2024-03-02T11:06:56;41.60;28.80
3954;DHT22;1991;48.682;9.030;2024-03-02T11:09:26;42.30;28.50
3954;DHT22;1991;48.682;9.030;2024-03-02T11:14:41;43.10;28.00
3954;DHT22;1991;48.682;9.030;2024-03-02T11:17:12;43.00;27.90
3954;DHT22;1991;48.682;9.030;2024-03-02T11:19:41;41.50;28.00
3954;DHT22;1991;48.682;9.030;2024-03-02T11:22:08;42.60;28.10
3954;DHT22;1991;48.682;9.030;2024-03-02T11:24:34;42.10;27.80
3954;DHT22;1991;48.682;9.030;2024-03-02T11:27:05;42.20;28.00
3954;DHT22;1991;48.682;9.030;2024-03-02T11:32:14;42.90;27.90
3954;DHT22;1991;48.682;9.030;2024-03-02T11:34:42;43.30;27.80
3954;DHT22;1991;48.682;9.030;2024-03-02T11:37:12;39.30;28.30
3954;DHT22;1991;48.682;9.030;2024-03-02T11:39:39;37.90;28.70
3954;DHT22;1991;48.682;9.030;2024-03-02T11:42:08;36.90;29.60
3954;DHT22;1991;48.682;9.030;2024-03-02T11:44:37;36.50;29.40
3954;DHT22;1991;48.682;9.030;2024-03-02T11:47:07;37.00;29.50
3954;DHT22;1991;48.682;9.030;2024-03-02T11:49:46;38.00;29.20
3954;DHT22;1991;48.682;9.030;2024-03-02T11:52:14;39.60;29.00
3954;DHT22;1991;48.682;9.030;2024-03-02T11:54:44;40.30;28.70
3954;DHT22;1991;48.682;9.030;2024-03-02T11:57:16;41.50;28.60
3954;DHT22;1991;48.682;9.030;2024-03-02T11:59:42;41.40;28.30
3954;DHT22;1991;48.682;9.030;2024-03-02T12:02:15;42.00;28.50
3954;DHT22;1991;48.682;9.030;2024-03-02T12:04:42;42.90;28.30
3954;DHT22;1991;48.682;9.030;2024-03-02T12:07:08;44.90;28.00
3954;DHT22;1991;48.682;9.030;2024-03-02T12:09:34;45.30;27.40
3954;DHT22;1991;48.682;9.030;2024-03-02T12:12:03;45.50;27.50
3954;DHT22;1991;48.682;9.030;2024-03-02T12:14:30;45.00;27.50
3954;DHT22;1991;48.682;9.030;2024-03-02T12:16:55;44.10;27.30
3954;DHT22;1991;48.682;9.030;2024-03-02T12:19:24;45.60;27.90
3954;DHT22;1991;48.682;9.030;2024-03-02T12:21:50;45.90;27.00
3954;DHT22;1991;48.682;9.030;2024-03-02T12:24:15;46.80;27.00
3954;DHT22;1991;48.682;9.030;2024-03-02T12:26:41;47.00;26.70
3954;DHT22;1991;48.682;9.030;2024-03-02T12:29:07;47.10;26.90
3954;DHT22;1991;48.682;9.030;2024-03-02T12:31:32;47.50;26.80
3954;DHT22;1991;48.682;9.030;2024-03-02T12:33:58;48.70;26.80
3954;DHT22;1991;48.682;9.030;2024-03-02T12:36:24;49.00;26.30
3954;DHT22;1991;48.682;9.030;2024-03-02T12:38:53;49.60;26.20
3954;DHT22;1991;48.682;9.030;2024-03-02T12:41:18;45.30;26.00
3954;DHT22;1991;48.682;9.030;2024-03-02T12:43:44;43.20;26.80
3954;DHT22;1991;48.682;9.030;2024-03-02T12:46:11;43.00;27.60
3954;DHT22;1991;48.682;9.030;2024-03-02T12:48:37;43.60;27.10
3954;DHT22;1991;48.682;9.030;2024-03-02T12:51:04;43.90;27.30
3954;DHT22;1991;48.682;9.030;2024-03-02T12:53:30;44.40;27.70
3954;DHT22;1991;48.682;9.030;2024-03-02T12:55:57;44.50;26.70
3954;DHT22;1991;48.682;9.030;2024-03-02T12:58:22;40.80;27.40
3954;DHT22;1991;48.682;9.030;2024-03-02T13:00:48;41.80;27.80
3954;DHT22;1991;48.682;9.030;2024-03-02T13:03:14;40.60;27.70
3954;DHT22;1991;48.682;9.030;2024-03-02T13:05:41;40.50;27.70
3954;DHT22;1991;48.682;9.030;2024-03-02T13:08:06;41.20;27.30
3954;DHT22;1991;48.682;9.030;2024-03-02T13:10:32;42.50;27.30
3954;DHT22;1991;48.682;9.030;2024-03-02T13:12:58;44.00;27.30
3954;DHT22;1991;48.682;9.030;2024-03-02T13:15:26;45.70;27.00
3954;DHT22;1991;48.682;9.030;2024-03-02T13:17:51;44.50;26.70
3954;DHT22;1991;48.682;9.030;2024-03-02T13:20:17;44.50;26.60
3954;DHT22;1991;48.682;9.030;2024-03-02T13:22:43;43.90;26.80
3954;DHT22;1991;48.682;9.030;2024-03-02T13:25:09;44.10;26.80
3954;DHT22;1991;48.682;9.030;2024-03-02T13:27:36;43.30;26.50
3954;DHT22;1991;48.682;9.030;2024-03-02T13:30:05;40.20;26.90
3954;DHT22;1991;48.682;9.030;2024-03-02T13:32:31;39.40;27.30
3954;DHT22;1991;48.682;9.030;2024-03-02T13:34:57;37.40;28.00
3954;DHT22;1991;48.682;9.030;2024-03-02T13:37:22;39.40;28.80
3954;DHT22;1991;48.682;9.030;2024-03-02T13:39:48;41.50;27.90
3954;DHT22;1991;48.682;9.030;2024-03-02T13:42:14;42.30;27.30
3954;DHT22;1991;48.682;9.030;2024-03-02T13:44:42;43.00;27.40
3954;DHT22;1991;48.682;9.030;2024-03-02T13:47:09;41.90;26.80
3954;DHT22;1991;48.682;9.030;2024-03-02T13:49:35;39.10;27.10
3954;DHT22;1991;48.682;9.030;2024-03-02T13:52:06;35.30;28.20
3954;DHT22;1991;48.682;9.030;2024-03-02T13:54:44;32.70;29.50
3954;DHT22;1991;48.682;9.030;2024-03-02T13:57:10;32.10;30.60
3954;DHT22;1991;48.682;9.030;2024-03-02T13:59:36;31.80;30.90
3954;DHT22;1991;48.682;9.030;2024-03-02T14:02:02;30.80;30.70
3954;DHT22;1991;48.682;9.030;2024-03-02T14:04:32;29.80;32.00
3954;DHT22;1991;48.682;9.030;2024-03-02T14:06:58;29.70;32.40
3954;DHT22;1991;48.682;9.030;2024-03-02T14:09:24;29.10;32.20
3954;DHT22;1991;48.682;9.030;2024-03-02T14:11:50;30.80;32.50
3954;DHT22;1991;48.682;9.030;2024-03-02T14:14:17;32.50;31.10
3954;DHT22;1991;48.682;9.030;2024-03-02T14:16:43;33.80;30.60
3954;DHT22;1991;48.682;9.030;2024-03-02T14:19:10;34.00;30.90
3954;DHT22;1991;48.682;9.030;2024-03-02T14:21:37;35.10;30.00
3954;DHT22;1991;48.682;9.030;2024-03-02T14:24:03;35.10;29.70
3954;DHT22;1991;48.682;9.030;2024-03-02T14:26:28;35.10;30.00
3954;DHT22;1991;48.682;9.030;2024-03-02T14:28:54;36.70;30.00
3954;DHT22;1991;48.682;9.030;2024-03-02T14:31:20;37.40;30.10
3954;DHT22;1991;48.682;9.030;2024-03-02T14:33:46;37.10;29.70
3954;DHT22;1991;48.682;9.030;2024-03-02T14:36:12;36.60;29.60
3954;DHT22;1991;48.682;9.030;2024-03-02T14:38:38;36.30;29.70
3954;DHT22;1991;48.682;9.030;2024-03-02T14:41:04;34.50;30.00
3954;DHT22;1991;48.682;9.030;2024-03-02T14:43:30;33.60;30.40
3954;DHT22;1991;48.682;9.030;2024-03-02T14:45:56;33.10;30.90
3954;DHT22;1991;48.682;9.030;2024-03-02T14:48:22;31.00;31.70
3954;DHT22;1991;48.682;9.030;2024-03-02T14:50:48;30.10;32.20
3954;DHT22;1991;48.682;9.030;2024-03-02T14:53:13;29.40;33.20
3954;DHT22;1991;48.682;9.030;2024-03-02T14:55:39;28.30;33.60
3954;DHT22;1991;48.682;9.030;2024-03-02T14:58:05;28.80;34.40
3954;DHT22;1991;48.682;9.030;2024-03-02T15:00:30;28.20;33.60
3954;DHT22;1991;48.682;9.030;2024-03-02T15:02:56;27.80;34.30
3954;DHT22;1991;48.682;9.030;2024-03-02T15:05:22;27.60;34.10
3954;DHT22;1991;48.682;9.030;2024-03-02T15:07:47;27.10;35.00
3954;DHT22;1991;48.682;9.030;2024-03-02T15:10:13;26.00;35.70
3954;DHT22;1991;48.682;9.030;2024-03-02T15:12:39;25.20;36.50
3954;DHT22;1991;48.682;9.030;2024-03-02T15:15:04;24.60;37.50
3954;DHT22;1991;48.682;9.030;2024-03-02T15:17:30;24.10;38.00
3954;DHT22;1991;48.682;9.030;2024-03-02T15:19:56;23.80;38.50
3954;DHT22;1991;48.682;9.030;2024-03-02T15:22:21;23.10;38.90
3954;DHT22;1991;48.682;9.030;2024-03-02T15:24:47;22.60;40.40
3954;DHT22;1991;48.682;9.030;2024-03-02T15:27:13;22.00;40.70
3954;DHT22;1991;48.682;9.030;2024-03-02T15:29:39;21.40;42.30
3954;DHT22;1991;48.682;9.030;2024-03-02T15:32:05;21.00;41.60
3954;DHT22;1991;48.682;9.030;2024-03-02T15:34:32;20.40;42.90
3954;DHT22;1991;48.682;9.030;2024-03-02T15:36:58;20.00;43.50
3954;DHT22;1991;48.682;9.030;2024-03-02T15:39:25;19.50;44.20
3954;DHT22;1991;48.682;9.030;2024-03-02T15:41:50;19.10;44.80
3954;DHT22;1991;48.682;9.030;2024-03-02T15:44:16;18.80;45.40
3954;DHT22;1991;48.682;9.030;2024-03-02T15:46:41;18.40;46.30
3954;DHT22;1991;48.682;9.030;2024-03-02T15:49:07;18.20;46.60
3954;DHT22;1991;48.682;9.030;2024-03-02T15:51:34;17.90;47.60
3954;DHT22;1991;48.682;9.030;2024-03-02T15:54:01;17.60;47.40
3954;DHT22;1991;48.682;9.030;2024-03-02T15:56:27;17.30;47.40
3954;DHT22;1991;48.682;9.030;2024-03-02T15:58:53;17.00;48.00
3954;DHT22;1991;48.682;9.030;2024-03-02T16:01:19;16.80;48.80
3954;DHT22;1991;48.682;9.030;2024-03-02T16:03:45;16.60;48.30
3954;DHT22;1991;48.682;9.030;2024-03-02T16:06:11;16.40;48.80
3954;DHT22;1991;48.682;9.030;2024-03-02T16:08:37;16.20;49.10
3954;DHT22;1991;48.682;9.030;2024-03-02T16:11:03;16.00;49.70
3954;DHT22;1991;48.682;9.030;2024-03-02T16:13:29;15.70;50.50
3954;DHT22;1991;48.682;9.030;2024-03-02T16:15:55;15.50;51.30
3954;DHT22;1991;48.682;9.030;2024-03-02T16:18:21;15.30;52.00
3954;DHT22;1991;48.682;9.030;2024-03-02T16:20:46;15.10;52.60
3954;DHT22;1991;48.682;9.030;2024-03-02T16:23:12;15.00;53.10